sensor_id;sensor_type;location;lat;lon;timestamp;P1;durP1;ratioP1;P2;durP2;ratioP2
23179;SDS011;11758;45.756;11.432;2022-12-05T00:00:17;50.97;;;26.40;;
23179;SDS011;11758;45.756;11.432;2022-12-05T00:02:43;53.45;;;26.10;;
23179;SDS011;11758;45.756;11.432;2022-12-05T00:05:10;57.90;;;25.63;;
23179;SDS011;11758;45.756;11.432;2022-12-05T00:07:36;78.13;;;26.02;;
23179;SDS011;11758;45.756;11.432;2022-12-05T00:10:03;119.72;;;26.25;;
23179;SDS011;11758;45.756;11.432;2022-12-05T00:12:38;242.20;;;30.75;;
23179;SDS011;11758;45.756;11.432;2022-12-05T00:15:10;158.50;;;26.92;;
23179;SDS011;11758;45.756;11.432;2022-12-05T00:17:37;136.98;;;27.75;;
23179;SDS011;11758;45.756;11.432;2022-12-05T00:20:04;220.18;;;29.70;;
23179;SDS011;11758;45.756;11.432;2022-12-05T00:22:30;164.50;;;29.42;;
23179;SDS011;11758;45.756;11.432;2022-12-05T00:24:59;77.35;;;26.98;;
23179;SDS011;11758;45.756;11.432;2022-12-05T00:27:25;146.73;;;27.20;;
23179;SDS011;11758;45.756;11.432;2022-12-05T00:29:51;276.92;;;30.73;;
23179;SDS011;11758;45.756;11.432;2022-12-05T00:32:17;204.63;;;27.00;;
23179;SDS011;11758;45.756;11.432;2022-12-05T00:34:43;156.43;;;25.77;;
23179;SDS011;11758;45.756;11.432;2022-12-05T00:37:09;158.32;;;26.13;;
23179;SDS011;11758;45.756;11.432;2022-12-05T00:39:35;116.50;;;26.25;;
23179;SDS011;11758;45.756;11.432;2022-12-05T00:42:02;364.95;;;29.80;;
23179;SDS011;11758;45.756;11.432;2022-12-05T00:44:28;218.80;;;26.30;;
23179;SDS011;11758;45.756;11.432;2022-12-05T00:46:54;176.02;;;26.58;;
23179;SDS011;11758;45.756;11.432;2022-12-05T00:49:20;141.52;;;26.08;;
23179;SDS011;11758;45.756;11.432;2022-12-05T00:51:46;344.23;;;28.38;;
23179;SDS011;11758;45.756;11.432;2022-12-05T00:54:13;400.05;;;31.02;;
23179;SDS011;11758;45.756;11.432;2022-12-05T00:56:40;202.40;;;27.92;;
23179;SDS011;11758;45.756;11.432;2022-12-05T00:59:06;273.98;;;27.38;;
23179;SDS011;11758;45.756;11.432;2022-12-05T01:01:37;206.68;;;25.95;;
23179;SDS011;11758;45.756;11.432;2022-12-05T01:04:14;291.10;;;27.90;;
23179;SDS011;11758;45.756;11.432;2022-12-05T01:06:41;304.42;;;28.65;;
23179;SDS011;11758;45.756;11.432;2022-12-05T01:09:07;293.90;;;26.60;;
23179;SDS011;11758;45.756;11.432;2022-12-05T01:11:34;117.25;;;23.27;;
23179;SDS011;11758;45.756;11.432;2022-12-05T01:14:00;158.90;;;23.58;;
23179;SDS011;11758;45.756;11.432;2022-12-05T01:18:54;37.55;;;20.48;;
23179;SDS011;11758;45.756;11.432;2022-12-05T01:21:20;34.75;;;19.40;;
23179;SDS011;11758;45.756;11.432;2022-12-05T01:23:47;33.33;;;18.95;;
23179;SDS011;11758;45.756;11.432;2022-12-05T01:26:14;32.20;;;18.30;;
23179;SDS011;11758;45.756;11.432;2022-12-05T01:28:40;27.20;;;15.63;;
23179;SDS011;11758;45.756;11.432;2022-12-05T01:31:16;23.33;;;14.98;;
23179;SDS011;11758;45.756;11.432;2022-12-05T01:33:43;23.77;;;15.38;;
23179;SDS011;11758;45.756;11.432;2022-12-05T01:36:10;24.70;;;15.40;;
23179;SDS011;11758;45.756;11.432;2022-12-05T01:38:40;22.77;;;14.80;;
23179;SDS011;11758;45.756;11.432;2022-12-05T01:41:07;22.40;;;14.50;;
23179;SDS011;11758;45.756;11.432;2022-12-05T01:43:51;21.77;;;14.98;;
23179;SDS011;11758;45.756;11.432;2022-12-05T01:46:18;21.23;;;13.57;;
23179;SDS011;11758;45.756;11.432;2022-12-05T01:48:44;22.20;;;14.38;;
23179;SDS011;11758;45.756;11.432;2022-12-05T01:51:10;20.55;;;14.63;;
23179;SDS011;11758;45.756;11.432;2022-12-05T01:53:36;23.65;;;16.02;;
23179;SDS011;11758;45.756;11.432;2022-12-05T01:56:03;23.08;;;15.68;;
23179;SDS011;11758;45.756;11.432;2022-12-05T01:58:30;18.42;;;13.30;;
23179;SDS011;11758;45.756;11.432;2022-12-05T02:00:57;17.92;;;13.15;;
23179;SDS011;11758;45.756;11.432;2022-12-05T02:03:23;23.52;;;14.45;;
23179;SDS011;11758;45.756;11.432;2022-12-05T02:05:50;18.60;;;13.30;;
23179;SDS011;11758;45.756;11.432;2022-12-05T02:08:17;20.65;;;14.05;;
23179;SDS011;11758;45.756;11.432;2022-12-05T02:10:44;19.02;;;13.27;;
23179;SDS011;11758;45.756;11.432;2022-12-05T02:13:31;19.25;;;12.75;;
23179;SDS011;11758;45.756;11.432;2022-12-05T02:16:21;15.60;;;11.60;;
23179;SDS011;11758;45.756;11.432;2022-12-05T02:18:59;18.83;;;12.35;;
23179;SDS011;11758;45.756;11.432;2022-12-05T02:21:49;18.05;;;12.57;;
23179;SDS011;11758;45.756;11.432;2022-12-05T02:24:26;20.42;;;13.50;;
23179;SDS011;11758;45.756;11.432;2022-12-05T02:32:01;18.80;;;12.15;;
23179;SDS011;11758;45.756;11.432;2022-12-05T02:34:30;20.65;;;12.73;;
23179;SDS011;11758;45.756;11.432;2022-12-05T02:37:06;18.58;;;11.98;;
23179;SDS011;11758;45.756;11.432;2022-12-05T02:40:18;15.55;;;10.40;;
23179;SDS011;11758;45.756;11.432;2022-12-05T02:42:31;15.38;;;10.02;;
23179;SDS011;11758;45.756;11.432;2022-12-05T02:45:02;16.77;;;10.23;;
23179;SDS011;11758;45.756;11.432;2022-12-05T02:47:32;12.40;;;8.48;;
23179;SDS011;11758;45.756;11.432;2022-12-05T02:49:59;13.65;;;8.65;;
23179;SDS011;11758;45.756;11.432;2022-12-05T02:52:26;12.38;;;7.50;;
23179;SDS011;11758;45.756;11.432;2022-12-05T02:54:52;9.30;;;6.40;;
23179;SDS011;11758;45.756;11.432;2022-12-05T02:57:20;6.57;;;4.03;;
23179;SDS011;11758;45.756;11.432;2022-12-05T02:59:47;1.88;;;1.80;;
23179;SDS011;11758;45.756;11.432;2022-12-05T03:02:24;2.80;;;2.67;;
23179;SDS011;11758;45.756;11.432;2022-12-05T03:04:51;2.65;;;2.55;;
23179;SDS011;11758;45.756;11.432;2022-12-05T03:07:18;2.30;;;2.20;;
23179;SDS011;11758;45.756;11.432;2022-12-05T03:10:04;2.70;;;2.60;;
23179;SDS011;11758;45.756;11.432;2022-12-05T03:12:33;1.83;;;1.80;;
23179;SDS011;11758;45.756;11.432;2022-12-05T03:15:04;2.25;;;2.15;;
23179;SDS011;11758;45.756;11.432;2022-12-05T03:17:33;2.25;;;2.08;;
23179;SDS011;11758;45.756;11.432;2022-12-05T03:20:04;2.47;;;1.77;;
23179;SDS011;11758;45.756;11.432;2022-12-05T03:22:34;1.90;;;1.90;;
23179;SDS011;11758;45.756;11.432;2022-12-05T03:25:02;3.50;;;3.20;;
23179;SDS011;11758;45.756;11.432;2022-12-05T03:32:32;6.38;;;5.30;;
23179;SDS011;11758;45.756;11.432;2022-12-05T03:35:10;6.85;;;5.75;;
23179;SDS011;11758;45.756;11.432;2022-12-05T03:40:13;8.65;;;6.88;;
23179;SDS011;11758;45.756;11.432;2022-12-05T03:42:51;13.77;;;6.90;;
23179;SDS011;11758;45.756;11.432;2022-12-05T03:45:21;8.82;;;6.78;;
23179;SDS011;11758;45.756;11.432;2022-12-05T03:47:54;8.75;;;6.97;;
23179;SDS011;11758;45.756;11.432;2022-12-05T03:50:26;9.05;;;7.53;;
23179;SDS011;11758;45.756;11.432;2022-12-05T03:55:37;11.30;;;8.23;;
23179;SDS011;11758;45.756;11.432;2022-12-05T03:58:05;11.70;;;8.55;;
23179;SDS011;11758;45.756;11.432;2022-12-05T04:00:33;13.40;;;8.18;;
23179;SDS011;11758;45.756;11.432;2022-12-05T04:03:07;12.80;;;9.40;;
23179;SDS011;11758;45.756;11.432;2022-12-05T04:05:45;10.43;;;8.23;;
23179;SDS011;11758;45.756;11.432;2022-12-05T04:08:19;11.65;;;8.93;;
23179;SDS011;11758;45.756;11.432;2022-12-05T04:10:47;12.73;;;9.00;;
23179;SDS011;11758;45.756;11.432;2022-12-05T04:13:22;12.70;;;8.27;;
23179;SDS011;11758;45.756;11.432;2022-12-05T04:16:24;12.05;;;8.38;;
23179;SDS011;11758;45.756;11.432;2022-12-05T04:19:02;13.68;;;8.75;;
23179;SDS011;11758;45.756;11.432;2022-12-05T04:21:32;12.18;;;9.00;;
23179;SDS011;11758;45.756;11.432;2022-12-05T04:24:02;13.07;;;8.85;;
23179;SDS011;11758;45.756;11.432;2022-12-05T04:26:47;11.57;;;8.18;;
23179;SDS011;11758;45.756;11.432;2022-12-05T04:29:22;11.68;;;8.10;;
23179;SDS011;11758;45.756;11.432;2022-12-05T04:31:50;12.18;;;8.48;;
23179;SDS011;11758;45.756;11.432;2022-12-05T04:34:17;13.05;;;7.65;;
23179;SDS011;11758;45.756;11.432;2022-12-05T04:36:45;7.78;;;6.85;;
23179;SDS011;11758;45.756;11.432;2022-12-05T04:39:35;8.20;;;6.32;;
23179;SDS011;11758;45.756;11.432;2022-12-05T04:42:06;9.43;;;6.85;;
23179;SDS011;11758;45.756;11.432;2022-12-05T04:44:36;7.15;;;6.45;;
23179;SDS011;11758;45.756;11.432;2022-12-05T04:47:03;8.63;;;6.90;;
23179;SDS011;11758;45.756;11.432;2022-12-05T04:49:31;8.13;;;6.40;;
23179;SDS011;11758;45.756;11.432;2022-12-05T04:51:59;16.70;;;10.80;;
23179;SDS011;11758;45.756;11.432;2022-12-05T04:54:28;12.82;;;9.63;;
23179;SDS011;11758;45.756;11.432;2022-12-05T04:56:55;13.32;;;8.90;;
23179;SDS011;11758;45.756;11.432;2022-12-05T04:59:24;39.70;;;19.92;;
23179;SDS011;11758;45.756;11.432;2022-12-05T05:01:52;9.80;;;7.25;;
23179;SDS011;11758;45.756;11.432;2022-12-05T05:06:46;2.03;;;2.00;;
23179;SDS011;11758;45.756;11.432;2022-12-05T05:09:12;1.52;;;1.27;;
23179;SDS011;11758;45.756;11.432;2022-12-05T05:11:38;1.40;;;1.40;;
23179;SDS011;11758;45.756;11.432;2022-12-05T05:14:04;0.88;;;0.88;;
23179;SDS011;11758;45.756;11.432;2022-12-05T05:16:35;0.50;;;0.50;;
23179;SDS011;11758;45.756;11.432;2022-12-05T05:19:01;0.60;;;0.60;;
23179;SDS011;11758;45.756;11.432;2022-12-05T05:21:29;1.17;;;0.60;;
23179;SDS011;11758;45.756;11.432;2022-12-05T05:23:55;0.50;;;0.50;;
23179;SDS011;11758;45.756;11.432;2022-12-05T05:26:22;0.32;;;0.32;;
23179;SDS011;11758;45.756;11.432;2022-12-05T05:28:49;1.48;;;0.68;;
23179;SDS011;11758;45.756;11.432;2022-12-05T05:31:15;1.27;;;0.82;;
23179;SDS011;11758;45.756;11.432;2022-12-05T05:33:42;0.50;;;0.50;;
23179;SDS011;11758;45.756;11.432;2022-12-05T05:36:09;0.40;;;0.40;;
23179;SDS011;11758;45.756;11.432;2022-12-05T05:38:40;0.60;;;0.60;;
23179;SDS011;11758;45.756;11.432;2022-12-05T05:41:10;0.63;;;0.63;;
23179;SDS011;11758;45.756;11.432;2022-12-05T05:43:38;0.47;;;0.47;;
23179;SDS011;11758;45.756;11.432;2022-12-05T05:46:04;1.65;;;1.10;;
23179;SDS011;11758;45.756;11.432;2022-12-05T05:48:30;6.95;;;4.55;;
23179;SDS011;11758;45.756;11.432;2022-12-05T05:51:00;3.70;;;3.35;;
23179;SDS011;11758;45.756;11.432;2022-12-05T05:53:26;2.08;;;2.08;;
23179;SDS011;11758;45.756;11.432;2022-12-05T05:55:52;0.88;;;0.88;;
23179;SDS011;11758;45.756;11.432;2022-12-05T05:58:18;1.10;;;0.57;;
23179;SDS011;11758;45.756;11.432;2022-12-05T06:00:44;0.57;;;0.57;;
23179;SDS011;11758;45.756;11.432;2022-12-05T06:03:11;0.55;;;0.55;;
23179;SDS011;11758;45.756;11.432;2022-12-05T06:05:37;0.85;;;0.85;;
23179;SDS011;11758;45.756;11.432;2022-12-05T06:08:03;0.43;;;0.43;;
23179;SDS011;11758;45.756;11.432;2022-12-05T06:10:29;2.03;;;0.63;;
23179;SDS011;11758;45.756;11.432;2022-12-05T06:12:56;2.15;;;1.30;;
23179;SDS011;11758;45.756;11.432;2022-12-05T06:15:22;1.30;;;1.30;;
23179;SDS011;11758;45.756;11.432;2022-12-05T06:17:48;2.22;;;2.13;;
23179;SDS011;11758;45.756;11.432;2022-12-05T06:20:15;1.90;;;1.90;;
23179;SDS011;11758;45.756;11.432;2022-12-05T06:22:41;1.30;;;1.27;;
23179;SDS011;11758;45.756;11.432;2022-12-05T06:25:07;1.25;;;1.25;;
23179;SDS011;11758;45.756;11.432;2022-12-05T06:27:34;1.27;;;1.27;;
23179;SDS011;11758;45.756;11.432;2022-12-05T06:30:00;1.52;;;1.52;;
23179;SDS011;11758;45.756;11.432;2022-12-05T06:32:27;3.95;;;3.67;;
23179;SDS011;11758;45.756;11.432;2022-12-05T06:34:54;4.75;;;4.35;;
23179;SDS011;11758;45.756;11.432;2022-12-05T06:37:20;9.98;;;8.07;;
23179;SDS011;11758;45.756;11.432;2022-12-05T06:39:46;12.73;;;9.50;;
23179;SDS011;11758;45.756;11.432;2022-12-05T06:42:12;8.32;;;7.00;;
23179;SDS011;11758;45.756;11.432;2022-12-05T06:44:40;5.47;;;4.50;;
23179;SDS011;11758;45.756;11.432;2022-12-05T06:47:06;6.28;;;4.57;;
23179;SDS011;11758;45.756;11.432;2022-12-05T06:49:32;2.65;;;2.45;;
23179;SDS011;11758;45.756;11.432;2022-12-05T06:51:58;2.80;;;2.20;;
23179;SDS011;11758;45.756;11.432;2022-12-05T06:54:24;2.40;;;2.30;;
23179;SDS011;11758;45.756;11.432;2022-12-05T06:56:51;2.30;;;2.13;;
23179;SDS011;11758;45.756;11.432;2022-12-05T06:59:17;3.42;;;1.58;;
23179;SDS011;11758;45.756;11.432;2022-12-05T07:01:43;2.25;;;1.52;;
23179;SDS011;11758;45.756;11.432;2022-12-05T07:04:20;1.17;;;1.17;;
23179;SDS011;11758;45.756;11.432;2022-12-05T07:06:50;1.42;;;1.33;;
23179;SDS011;11758;45.756;11.432;2022-12-05T07:09:17;1.55;;;1.30;;
23179;SDS011;11758;45.756;11.432;2022-12-05T07:11:50;2.00;;;1.90;;
23179;SDS011;11758;45.756;11.432;2022-12-05T07:14:16;3.83;;;3.60;;
23179;SDS011;11758;45.756;11.432;2022-12-05T07:16:42;12.45;;;9.50;;
23179;SDS011;11758;45.756;11.432;2022-12-05T07:19:09;14.57;;;11.07;;
23179;SDS011;11758;45.756;11.432;2022-12-05T07:21:35;16.55;;;9.90;;
23179;SDS011;11758;45.756;11.432;2022-12-05T07:24:01;32.65;;;16.63;;
23179;SDS011;11758;45.756;11.432;2022-12-05T07:26:27;14.75;;;9.30;;
23179;SDS011;11758;45.756;11.432;2022-12-05T07:28:54;8.68;;;5.82;;
23179;SDS011;11758;45.756;11.432;2022-12-05T07:31:21;4.88;;;4.47;;
23179;SDS011;11758;45.756;11.432;2022-12-05T07:33:49;8.50;;;5.28;;
23179;SDS011;11758;45.756;11.432;2022-12-05T07:36:20;6.05;;;4.85;;
23179;SDS011;11758;45.756;11.432;2022-12-05T07:38:47;4.75;;;4.13;;
23179;SDS011;11758;45.756;11.432;2022-12-05T07:41:32;14.48;;;7.55;;
23179;SDS011;11758;45.756;11.432;2022-12-05T07:43:59;8.15;;;4.97;;
23179;SDS011;11758;45.756;11.432;2022-12-05T07:46:26;6.55;;;5.07;;
23179;SDS011;11758;45.756;11.432;2022-12-05T07:48:53;7.55;;;5.57;;
23179;SDS011;11758;45.756;11.432;2022-12-05T07:51:19;10.43;;;6.35;;
23179;SDS011;11758;45.756;11.432;2022-12-05T07:53:46;11.00;;;6.13;;
23179;SDS011;11758;45.756;11.432;2022-12-05T07:56:13;5.65;;;4.80;;
23179;SDS011;11758;45.756;11.432;2022-12-05T07:58:43;2.97;;;2.63;;
23179;SDS011;11758;45.756;11.432;2022-12-05T08:01:14;2.00;;;1.90;;
23179;SDS011;11758;45.756;11.432;2022-12-05T08:03:40;2.10;;;2.00;;
23179;SDS011;11758;45.756;11.432;2022-12-05T08:06:08;3.45;;;2.42;;
23179;SDS011;11758;45.756;11.432;2022-12-05T08:08:34;3.63;;;3.03;;
23179;SDS011;11758;45.756;11.432;2022-12-05T08:11:04;2.08;;;1.98;;
23179;SDS011;11758;45.756;11.432;2022-12-05T08:13:31;1.70;;;1.60;;
23179;SDS011;11758;45.756;11.432;2022-12-05T08:16:04;1.00;;;1.00;;
23179;SDS011;11758;45.756;11.432;2022-12-05T08:18:30;2.78;;;2.58;;
23179;SDS011;11758;45.756;11.432;2022-12-05T08:21:00;6.05;;;3.25;;
23179;SDS011;11758;45.756;11.432;2022-12-05T08:23:27;5.65;;;5.10;;
23179;SDS011;11758;45.756;11.432;2022-12-05T08:25:54;13.05;;;8.35;;
23179;SDS011;11758;45.756;11.432;2022-12-05T08:28:20;12.85;;;8.48;;
23179;SDS011;11758;45.756;11.432;2022-12-05T08:30:46;8.43;;;5.80;;
23179;SDS011;11758;45.756;11.432;2022-12-05T08:33:12;3.03;;;2.80;;
23179;SDS011;11758;45.756;11.432;2022-12-05T08:35:38;11.65;;;8.90;;
23179;SDS011;11758;45.756;11.432;2022-12-05T08:38:04;3.55;;;2.65;;
23179;SDS011;11758;45.756;11.432;2022-12-05T08:40:31;1.85;;;1.85;;
23179;SDS011;11758;45.756;11.432;2022-12-05T08:42:57;3.08;;;2.85;;
23179;SDS011;11758;45.756;11.432;2022-12-05T08:45:23;4.85;;;4.20;;
23179;SDS011;11758;45.756;11.432;2022-12-05T08:47:49;4.78;;;2.75;;
23179;SDS011;11758;45.756;11.432;2022-12-05T08:50:15;3.20;;;2.83;;
23179;SDS011;11758;45.756;11.432;2022-12-05T08:52:41;5.05;;;4.57;;
23179;SDS011;11758;45.756;11.432;2022-12-05T08:55:07;6.88;;;5.45;;
23179;SDS011;11758;45.756;11.432;2022-12-05T08:57:34;4.82;;;4.32;;
23179;SDS011;11758;45.756;11.432;2022-12-05T09:00:00;5.90;;;5.38;;
23179;SDS011;11758;45.756;11.432;2022-12-05T09:02:26;5.53;;;5.03;;
23179;SDS011;11758;45.756;11.432;2022-12-05T09:04:52;4.38;;;3.92;;
23179;SDS011;11758;45.756;11.432;2022-12-05T09:07:18;5.22;;;4.40;;
23179;SDS011;11758;45.756;11.432;2022-12-05T09:09:44;5.70;;;4.00;;
23179;SDS011;11758;45.756;11.432;2022-12-05T09:12:10;3.30;;;3.10;;
23179;SDS011;11758;45.756;11.432;2022-12-05T09:14:37;4.95;;;3.97;;
23179;SDS011;11758;45.756;11.432;2022-12-05T09:17:03;2.90;;;2.72;;
23179;SDS011;11758;45.756;11.432;2022-12-05T09:19:30;3.25;;;3.05;;
23179;SDS011;11758;45.756;11.432;2022-12-05T09:22:14;3.75;;;3.53;;
23179;SDS011;11758;45.756;11.432;2022-12-05T09:24:41;9.98;;;6.53;;
23179;SDS011;11758;45.756;11.432;2022-12-05T09:27:07;3.13;;;2.92;;
23179;SDS011;11758;45.756;11.432;2022-12-05T09:29:34;4.72;;;4.22;;
23179;SDS011;11758;45.756;11.432;2022-12-05T09:32:00;7.43;;;5.07;;
23179;SDS011;11758;45.756;11.432;2022-12-05T09:34:26;6.10;;;5.53;;
23179;SDS011;11758;45.756;11.432;2022-12-05T09:36:53;7.60;;;5.63;;
23179;SDS011;11758;45.756;11.432;2022-12-05T09:39:21;7.60;;;5.10;;
23179;SDS011;11758;45.756;11.432;2022-12-05T09:44:38;16.30;;;11.95;;
23179;SDS011;11758;45.756;11.432;2022-12-05T09:47:14;9.02;;;7.10;;
23179;SDS011;11758;45.756;11.432;2022-12-05T09:49:49;6.30;;;5.70;;
23179;SDS011;11758;45.756;11.432;2022-12-05T09:52:21;7.15;;;6.40;;
23179;SDS011;11758;45.756;11.432;2022-12-05T09:54:47;11.23;;;6.32;;
23179;SDS011;11758;45.756;11.432;2022-12-05T09:57:16;5.95;;;5.45;;
23179;SDS011;11758;45.756;11.432;2022-12-05T09:59:43;6.07;;;5.47;;
23179;SDS011;11758;45.756;11.432;2022-12-05T10:05:07;12.65;;;10.15;;
23179;SDS011;11758;45.756;11.432;2022-12-05T10:07:48;15.90;;;11.63;;
23179;SDS011;11758;45.756;11.432;2022-12-05T10:16:30;6.13;;;5.53;;
23179;SDS011;11758;45.756;11.432;2022-12-05T10:21:14;12.07;;;6.50;;
23179;SDS011;11758;45.756;11.432;2022-12-05T10:23:58;7.85;;;6.90;;
23179;SDS011;11758;45.756;11.432;2022-12-05T10:27:09;9.52;;;8.48;;
23179;SDS011;11758;45.756;11.432;2022-12-05T10:29:29;10.95;;;8.38;;
23179;SDS011;11758;45.756;11.432;2022-12-05T10:34:34;11.70;;;8.10;;
23179;SDS011;11758;45.756;11.432;2022-12-05T10:37:10;12.05;;;8.13;;
23179;SDS011;11758;45.756;11.432;2022-12-05T10:39:39;21.88;;;13.35;;
23179;SDS011;11758;45.756;11.432;2022-12-05T10:42:35;27.73;;;14.45;;
23179;SDS011;11758;45.756;11.432;2022-12-05T10:45:04;30.95;;;16.92;;
23179;SDS011;11758;45.756;11.432;2022-12-05T10:47:43;82.30;;;48.40;;
23179;SDS011;11758;45.756;11.432;2022-12-05T10:50:31;23.13;;;14.25;;
23179;SDS011;11758;45.756;11.432;2022-12-05T10:52:56;10.70;;;8.63;;
23179;SDS011;11758;45.756;11.432;2022-12-05T10:55:22;9.02;;;8.13;;
23179;SDS011;11758;45.756;11.432;2022-12-05T10:57:52;10.82;;;9.02;;
23179;SDS011;11758;45.756;11.432;2022-12-05T11:00:33;22.63;;;17.02;;
23179;SDS011;11758;45.756;11.432;2022-12-05T11:03:00;40.58;;;25.30;;
23179;SDS011;11758;45.756;11.432;2022-12-05T11:08:34;13.30;;;9.27;;
23179;SDS011;11758;45.756;11.432;2022-12-05T11:11:03;10.93;;;9.18;;
23179;SDS011;11758;45.756;11.432;2022-12-05T11:13:30;13.43;;;10.18;;
23179;SDS011;11758;45.756;11.432;2022-12-05T11:15:56;15.95;;;11.10;;
23179;SDS011;11758;45.756;11.432;2022-12-05T11:18:27;17.08;;;11.40;;
23179;SDS011;11758;45.756;11.432;2022-12-05T11:20:55;19.58;;;13.20;;
23179;SDS011;11758;45.756;11.432;2022-12-05T11:23:22;12.48;;;8.90;;
23179;SDS011;11758;45.756;11.432;2022-12-05T11:25:49;9.93;;;6.28;;
23179;SDS011;11758;45.756;11.432;2022-12-05T11:30:55;115.80;;;52.63;;
23179;SDS011;11758;45.756;11.432;2022-12-05T11:33:22;103.63;;;52.47;;
23179;SDS011;11758;45.756;11.432;2022-12-05T11:35:51;27.30;;;18.65;;
23179;SDS011;11758;45.756;11.432;2022-12-05T11:38:18;19.02;;;13.75;;
23179;SDS011;11758;45.756;11.432;2022-12-05T11:43:56;30.35;;;17.70;;
23179;SDS011;11758;45.756;11.432;2022-12-05T11:46:27;28.05;;;18.15;;
23179;SDS011;11758;45.756;11.432;2022-12-05T11:51:46;18.40;;;11.82;;
23179;SDS011;11758;45.756;11.432;2022-12-05T11:57:06;9.55;;;8.55;;
23179;SDS011;11758;45.756;11.432;2022-12-05T12:07:23;8.98;;;7.70;;
23179;SDS011;11758;45.756;11.432;2022-12-05T12:17:58;13.27;;;9.60;;
23179;SDS011;11758;45.756;11.432;2022-12-05T12:20:40;18.42;;;13.90;;
23179;SDS011;11758;45.756;11.432;2022-12-05T12:31:27;18.88;;;14.20;;
23179;SDS011;11758;45.756;11.432;2022-12-05T12:36:51;6.53;;;4.20;;
23179;SDS011;11758;45.756;11.432;2022-12-05T12:42:02;5.25;;;4.05;;
23179;SDS011;11758;45.756;11.432;2022-12-05T13:00:24;5.28;;;3.60;;
23179;SDS011;11758;45.756;11.432;2022-12-05T13:02:55;3.80;;;3.42;;
23179;SDS011;11758;45.756;11.432;2022-12-05T13:05:41;4.20;;;3.85;;
23179;SDS011;11758;45.756;11.432;2022-12-05T13:08:28;17.50;;;9.55;;
23179;SDS011;11758;45.756;11.432;2022-12-05T13:10:58;14.57;;;9.65;;
23179;SDS011;11758;45.756;11.432;2022-12-05T13:13:26;10.93;;;6.95;;
23179;SDS011;11758;45.756;11.432;2022-12-05T13:15:58;16.77;;;10.23;;
23179;SDS011;11758;45.756;11.432;2022-12-05T13:18:25;13.60;;;11.18;;
23179;SDS011;11758;45.756;11.432;2022-12-05T13:20:58;15.10;;;11.55;;
23179;SDS011;11758;45.756;11.432;2022-12-05T13:23:28;16.08;;;12.02;;
23179;SDS011;11758;45.756;11.432;2022-12-05T13:25:57;13.68;;;11.93;;
23179;SDS011;11758;45.756;11.432;2022-12-05T13:28:28;18.88;;;14.68;;
23179;SDS011;11758;45.756;11.432;2022-12-05T13:30:57;16.83;;;13.52;;
23179;SDS011;11758;45.756;11.432;2022-12-05T13:33:35;19.77;;;14.10;;
23179;SDS011;11758;45.756;11.432;2022-12-05T13:36:11;19.88;;;16.25;;
23179;SDS011;11758;45.756;11.432;2022-12-05T13:39:03;14.75;;;11.18;;
23179;SDS011;11758;45.756;11.432;2022-12-05T13:41:53;22.58;;;14.93;;
23179;SDS011;11758;45.756;11.432;2022-12-05T13:44:40;18.50;;;12.35;;
23179;SDS011;11758;45.756;11.432;2022-12-05T13:47:18;14.18;;;9.45;;
23179;SDS011;11758;45.756;11.432;2022-12-05T13:49:50;19.63;;;11.85;;
23179;SDS011;11758;45.756;11.432;2022-12-05T13:52:21;10.60;;;8.20;;
23179;SDS011;11758;45.756;11.432;2022-12-05T13:55:31;12.65;;;9.45;;
23179;SDS011;11758;45.756;11.432;2022-12-05T14:07:49;9.07;;;7.55;;
23179;SDS011;11758;45.756;11.432;2022-12-05T14:12:55;10.48;;;8.55;;
23179;SDS011;11758;45.756;11.432;2022-12-05T14:15:31;15.43;;;10.07;;
23179;SDS011;11758;45.756;11.432;2022-12-05T14:18:07;13.77;;;9.13;;
23179;SDS011;11758;45.756;11.432;2022-12-05T14:20:48;13.57;;;9.85;;
23179;SDS011;11758;45.756;11.432;2022-12-05T14:31:03;22.52;;;16.38;;
23179;SDS011;11758;45.756;11.432;2022-12-05T14:33:33;27.17;;;19.70;;
23179;SDS011;11758;45.756;11.432;2022-12-05T14:36:06;31.42;;;20.00;;
23179;SDS011;11758;45.756;11.432;2022-12-05T14:38:33;17.00;;;11.95;;
23179;SDS011;11758;45.756;11.432;2022-12-05T14:43:50;30.23;;;17.15;;
23179;SDS011;11758;45.756;11.432;2022-12-05T14:46:22;22.67;;;15.88;;
23179;SDS011;11758;45.756;11.432;2022-12-05T14:48:49;16.73;;;12.77;;
23179;SDS011;11758;45.756;11.432;2022-12-05T14:51:53;13.90;;;8.90;;
23179;SDS011;11758;45.756;11.432;2022-12-05T14:54:15;11.20;;;9.10;;
23179;SDS011;11758;45.756;11.432;2022-12-05T14:56:46;17.92;;;11.98;;
23179;SDS011;11758;45.756;11.432;2022-12-05T14:59:22;20.17;;;13.52;;
23179;SDS011;11758;45.756;11.432;2022-12-05T15:01:54;26.73;;;15.73;;
23179;SDS011;11758;45.756;11.432;2022-12-05T15:11:52;16.30;;;11.98;;
23179;SDS011;11758;45.756;11.432;2022-12-05T15:14:19;28.92;;;18.23;;
23179;SDS011;11758;45.756;11.432;2022-12-05T15:16:46;19.90;;;13.85;;
23179;SDS011;11758;45.756;11.432;2022-12-05T15:19:28;19.45;;;12.18;;
23179;SDS011;11758;45.756;11.432;2022-12-05T15:21:56;12.60;;;9.98;;
23179;SDS011;11758;45.756;11.432;2022-12-05T15:24:24;14.60;;;10.55;;
23179;SDS011;11758;45.756;11.432;2022-12-05T15:26:57;8.63;;;7.72;;
23179;SDS011;11758;45.756;11.432;2022-12-05T15:34:27;5.97;;;5.43;;
23179;SDS011;11758;45.756;11.432;2022-12-05T15:37:15;17.15;;;12.35;;
23179;SDS011;11758;45.756;11.432;2022-12-05T15:40:07;10.18;;;7.93;;
23179;SDS011;11758;45.756;11.432;2022-12-05T15:42:49;64.93;;;34.75;;
23179;SDS011;11758;45.756;11.432;2022-12-05T15:45:19;52.28;;;36.00;;
23179;SDS011;11758;45.756;11.432;2022-12-05T15:48:11;21.05;;;15.65;;
23179;SDS011;11758;45.756;11.432;2022-12-05T15:53:24;14.27;;;10.35;;
23179;SDS011;11758;45.756;11.432;2022-12-05T16:01:07;34.05;;;22.08;;
23179;SDS011;11758;45.756;11.432;2022-12-05T16:08:51;19.70;;;14.82;;
23179;SDS011;11758;45.756;11.432;2022-12-05T16:11:21;16.05;;;12.15;;
23179;SDS011;11758;45.756;11.432;2022-12-05T16:13:48;30.33;;;21.85;;
23179;SDS011;11758;45.756;11.432;2022-12-05T16:16:19;29.00;;;21.73;;
23179;SDS011;11758;45.756;11.432;2022-12-05T16:18:51;33.25;;;22.80;;
23179;SDS011;11758;45.756;11.432;2022-12-05T16:24:16;25.33;;;17.35;;
23179;SDS011;11758;45.756;11.432;2022-12-05T16:26:43;28.10;;;17.23;;
23179;SDS011;11758;45.756;11.432;2022-12-05T16:29:26;25.88;;;17.20;;
23179;SDS011;11758;45.756;11.432;2022-12-05T16:31:55;28.60;;;18.88;;
23179;SDS011;11758;45.756;11.432;2022-12-05T16:34:22;30.08;;;21.30;;
23179;SDS011;11758;45.756;11.432;2022-12-05T16:36:49;32.97;;;23.02;;
23179;SDS011;11758;45.756;11.432;2022-12-05T16:39:15;40.67;;;24.80;;
23179;SDS011;11758;45.756;11.432;2022-12-05T16:41:42;37.30;;;25.20;;
23179;SDS011;11758;45.756;11.432;2022-12-05T16:46:55;37.42;;;23.65;;
23179;SDS011;11758;45.756;11.432;2022-12-05T16:49:24;31.85;;;21.70;;
23179;SDS011;11758;45.756;11.432;2022-12-05T16:52:17;18.58;;;12.55;;
23179;SDS011;11758;45.756;11.432;2022-12-05T16:54:44;9.90;;;7.47;;
23179;SDS011;11758;45.756;11.432;2022-12-05T16:57:12;5.20;;;4.70;;
23179;SDS011;11758;45.756;11.432;2022-12-05T16:59:39;6.07;;;5.47;;
23179;SDS011;11758;45.756;11.432;2022-12-05T17:02:13;7.40;;;3.00;;
23179;SDS011;11758;45.756;11.432;2022-12-05T17:04:42;3.25;;;2.00;;
23179;SDS011;11758;45.756;11.432;2022-12-05T17:07:08;3.03;;;2.67;;
23179;SDS011;11758;45.756;11.432;2022-12-05T17:09:34;2.10;;;2.00;;